createdAt,value
2019-04-25T00:00:28.336Z,81.39
2019-04-25T00:02:55.131Z,81.05
2019-04-25T00:05:21.926Z,81.42
2019-04-25T00:07:48.704Z,82.26
2019-04-25T00:10:15.503Z,82.72
2019-04-25T00:12:43.243Z,83.96
2019-04-25T00:15:11.183Z,84.49
2019-04-25T00:17:40.108Z,84.80
2019-04-25T00:20:08.988Z,85.31
2019-04-25T00:22:51.532Z,85.71
2019-04-25T00:25:46.741Z,86.00
2019-04-25T00:28:14.525Z,86.40
2019-04-25T00:30:43.301Z,86.88
2019-04-25T00:33:11.553Z,87.06
2019-04-25T00:35:38.511Z,87.13
2019-04-25T00:38:05.347Z,87.20
2019-04-25T00:40:32.050Z,87.32
2019-04-25T00:42:58.827Z,87.34
2019-04-25T00:45:25.613Z,87.38
2019-04-25T00:47:52.925Z,87.38
2019-04-25T00:50:19.770Z,87.21
2019-04-25T00:52:46.455Z,87.20
2019-04-25T00:55:25.820Z,87.15
2019-04-25T01:00:25.527Z,86.99
2019-04-25T01:03:16.842Z,86.92
2019-04-25T01:05:44.849Z,86.47
2019-04-25T01:08:12.310Z,87.12
2019-04-25T01:10:39.011Z,87.27
2019-04-25T01:13:06.211Z,87.32
2019-04-25T01:15:33.994Z,87.36
2019-04-25T01:18:03.465Z,87.05
2019-04-25T01:20:30.258Z,86.99
2019-04-25T01:22:57.816Z,86.78
2019-04-25T01:25:25.378Z,87.25
2019-04-25T01:27:53.665Z,87.64
2019-04-25T01:30:23.994Z,87.89
2019-04-25T01:32:51.046Z,88.10
2019-04-25T01:35:24.137Z,88.30
2019-04-25T01:38:08.957Z,88.37
2019-04-25T01:41:07.103Z,88.45
2019-04-25T01:43:40.689Z,88.44
2019-04-25T01:46:09.276Z,88.38
2019-04-25T01:48:36.054Z,87.92
2019-04-25T01:51:04.099Z,88.00
2019-04-25T01:53:30.908Z,87.74
2019-04-25T01:56:02.711Z,87.92
2019-04-25T01:58:26.275Z,88.55
2019-04-25T02:00:55.062Z,88.49
2019-04-25T02:03:22.121Z,88.24
2019-04-25T02:05:48.890Z,87.97
2019-04-25T02:08:15.583Z,87.86
2019-04-25T02:10:44.281Z,87.55
2019-04-25T02:13:13.852Z,87.21
2019-04-25T02:15:40.931Z,87.41
2019-04-25T02:18:07.717Z,87.12
2019-04-25T02:20:34.410Z,86.85
2019-04-25T02:23:02.065Z,86.81
2019-04-25T02:25:28.874Z,86.78
2019-04-25T02:27:56.204Z,87.17
2019-04-25T02:30:25.448Z,86.28
2019-04-25T02:32:56.042Z,86.21
2019-04-25T02:35:21.323Z,86.41
2019-04-25T02:37:48.352Z,86.65
2019-04-25T02:40:18.365Z,86.87
2019-04-25T02:42:45.082Z,86.68
2019-04-25T02:45:37.234Z,87.03
2019-04-25T02:48:24.119Z,86.75
2019-04-25T02:51:14.597Z,85.41
2019-04-25T02:53:44.795Z,84.86
2019-04-25T02:56:27.604Z,83.85
2019-04-25T02:58:40.501Z,84.22
2019-04-25T03:01:17.987Z,83.39
2019-04-25T03:03:37.563Z,82.14
2019-04-25T03:06:07.507Z,82.51
2019-04-25T03:08:35.243Z,82.44
2019-04-25T03:11:04.694Z,82.71
2019-04-25T03:13:30.505Z,82.17
2019-04-25T03:15:58.546Z,82.20
2019-04-25T03:18:27.464Z,82.26
2019-04-25T03:21:01.168Z,82.76
2019-04-25T03:23:38.038Z,80.78
2019-04-25T03:26:06.143Z,80.24
2019-04-25T03:28:33.932Z,80.44
2019-04-25T03:31:02.162Z,80.38
2019-04-25T03:33:29.454Z,80.69
2019-04-25T03:35:56.146Z,81.59
2019-04-25T03:38:24.282Z,81.62
2019-04-25T03:40:51.028Z,82.45
2019-04-25T03:43:17.816Z,83.64
2019-04-25T03:45:45.282Z,84.12
2019-04-25T03:48:12.095Z,84.66
2019-04-25T03:50:38.877Z,85.18
2019-04-25T03:53:06.510Z,85.79
2019-04-25T03:55:34.056Z,86.13
2019-04-25T03:58:04.502Z,86.08
2019-04-25T04:00:30.615Z,86.28
2019-04-25T04:02:57.200Z,85.85
2019-04-25T04:05:23.971Z,85.96
2019-04-25T04:07:50.675Z,85.64
2019-04-25T04:10:17.449Z,85.28
2019-04-25T04:12:44.389Z,84.97
2019-04-25T04:15:11.419Z,85.28
2019-04-25T04:17:53.601Z,85.08
2019-04-25T04:20:40.125Z,84.48
2019-04-25T04:23:17.552Z,84.85
2019-04-25T04:25:44.412Z,85.02
2019-04-25T04:28:11.851Z,84.01
2019-04-25T04:30:38.691Z,84.40
2019-04-25T04:33:06.869Z,84.41
2019-04-25T04:35:33.866Z,84.01
2019-04-25T04:38:00.431Z,83.47
2019-04-25T04:40:27.069Z,83.01
2019-04-25T04:42:53.748Z,83.61
2019-04-25T04:45:20.442Z,83.71
2019-04-25T04:47:47.214Z,82.84
2019-04-25T04:50:15.299Z,83.61
2019-04-25T04:52:43.905Z,84.33
2019-04-25T04:55:11.597Z,84.51
2019-04-25T04:57:39.667Z,84.03
2019-04-25T05:00:07.065Z,84.55
2019-04-25T05:02:53.359Z,84.93
2019-04-25T05:05:39.871Z,84.45
2019-04-25T05:08:10.922Z,84.38
2019-04-25T05:10:37.728Z,85.05
2019-04-25T05:13:04.411Z,85.13
2019-04-25T05:15:31.323Z,85.51
2019-04-25T05:17:58.087Z,85.14
2019-04-25T05:20:24.899Z,85.41
2019-04-25T05:22:54.580Z,85.43
2019-04-25T05:25:20.670Z,85.48
2019-04-25T05:27:59.647Z,84.23
2019-04-25T05:30:21.643Z,80.63
2019-04-25T05:32:48.319Z,79.26
2019-04-25T05:35:16.275Z,80.86
2019-04-25T05:37:43.643Z,81.62
2019-04-25T05:40:10.685Z,79.98
2019-04-25T05:42:55.489Z,75.50
2019-04-25T05:45:24.750Z,73.16
2019-04-25T05:47:54.017Z,72.27
2019-04-25T05:50:21.989Z,71.54
2019-04-25T05:52:49.232Z,76.30
2019-04-25T05:55:17.604Z,70.97
2019-04-25T05:57:49.556Z,66.60
2019-04-25T06:00:15.095Z,64.91
2019-04-25T06:02:42.012Z,66.93
2019-04-25T06:05:08.803Z,70.57
2019-04-25T06:07:35.579Z,69.27
2019-04-25T06:10:19.496Z,68.06
2019-04-25T06:12:54.646Z,70.09
2019-04-25T06:15:25.021Z,66.98
2019-04-25T06:18:11.071Z,59.62
2019-04-25T06:20:37.871Z,61.66
2019-04-25T06:23:25.336Z,64.24
2019-04-25T06:25:53.780Z,57.50
2019-04-25T06:28:23.976Z,58.62
2019-04-25T06:30:51.880Z,50.62
2019-04-25T06:33:18.678Z,48.92
2019-04-25T06:35:45.741Z,46.67
2019-04-25T06:38:13.326Z,50.50
2019-04-25T06:40:40.151Z,43.51
2019-04-25T06:43:06.850Z,43.82
2019-04-25T06:45:51.651Z,43.02
2019-04-25T06:48:27.099Z,38.95
2019-04-25T06:50:53.888Z,35.66
2019-04-25T06:53:20.661Z,38.16
2019-04-25T06:55:47.463Z,38.75
2019-04-25T06:58:14.596Z,38.74
2019-04-25T07:00:55.805Z,37.43
2019-04-25T07:03:10.037Z,36.57
2019-04-25T07:05:40.426Z,34.97
2019-04-25T07:08:06.117Z,34.98
2019-04-25T07:10:33.896Z,33.35
2019-04-25T07:13:01.614Z,33.45
2019-04-25T07:15:28.489Z,34.85
2019-04-25T07:17:55.219Z,35.06
2019-04-25T07:20:24.876Z,34.14
2019-04-25T07:22:51.788Z,32.27
2019-04-25T07:25:20.592Z,31.06
2019-04-25T07:28:21.532Z,33.95
2019-04-25T07:31:10.142Z,33.53
2019-04-25T07:33:43.310Z,31.83
2019-04-25T07:36:10.290Z,30.64
2019-04-25T07:38:37.058Z,29.76
2019-04-25T07:41:03.904Z,28.86
2019-04-25T07:43:31.706Z,30.43
2019-04-25T07:45:59.170Z,28.20
2019-04-25T07:48:26.825Z,30.42
2019-04-25T07:50:53.772Z,29.98
2019-04-25T07:53:20.502Z,29.13
2019-04-25T07:55:47.211Z,28.60
2019-04-25T07:58:14.456Z,28.89
2019-04-25T08:00:41.393Z,31.00
2019-04-25T08:03:08.061Z,31.05
2019-04-25T08:05:35.675Z,29.61
2019-04-25T08:08:03.931Z,27.96
2019-04-25T08:10:48.275Z,27.45
2019-04-25T08:13:15.213Z,29.14
2019-04-25T08:15:53.747Z,29.52
2019-04-25T08:18:23.399Z,28.69
2019-04-25T08:20:49.842Z,29.70
2019-04-25T08:23:16.632Z,31.01
2019-04-25T08:25:43.425Z,33.17
2019-04-25T08:28:10.191Z,30.63
2019-04-25T08:30:38.090Z,27.68
2019-04-25T08:33:05.070Z,30.61
2019-04-25T08:35:34.220Z,29.00
2019-04-25T08:38:01.284Z,28.75
2019-04-25T08:40:29.544Z,27.96
2019-04-25T08:42:56.366Z,28.55
2019-04-25T08:45:24.469Z,28.65
2019-04-25T08:47:51.331Z,29.77
2019-04-25T08:50:40.172Z,31.45
2019-04-25T08:53:06.479Z,31.61
2019-04-25T08:55:50.865Z,31.15
2019-04-25T08:58:37.318Z,31.96
2019-04-25T09:01:11.427Z,32.89
2019-04-25T09:03:44.507Z,30.52
2019-04-25T09:06:13.302Z,27.86
2019-04-25T09:08:41.040Z,27.45
2019-04-25T09:11:07.942Z,27.00
2019-04-25T09:13:35.822Z,26.71
2019-04-25T09:16:03.680Z,26.44
2019-04-25T09:18:30.348Z,25.73
2019-04-25T09:20:57.137Z,26.91
2019-04-25T09:23:23.963Z,25.48
2019-04-25T09:25:50.757Z,25.23
2019-04-25T09:28:17.478Z,24.60
2019-04-25T09:30:44.936Z,24.73
2019-04-25T09:33:13.270Z,25.46
2019-04-25T09:35:41.623Z,26.45
2019-04-25T09:38:08.603Z,26.86
2019-04-25T09:40:36.119Z,26.95
2019-04-25T09:43:03.632Z,28.05
2019-04-25T09:45:39.666Z,26.39
2019-04-25T09:48:37.995Z,24.47
2019-04-25T09:51:15.063Z,25.96
2019-04-25T09:53:45.996Z,23.48
2019-04-25T09:56:25.633Z,21.09
2019-04-25T09:58:59.287Z,21.84
2019-04-25T10:01:26.896Z,22.85
2019-04-25T10:03:54.365Z,21.34
2019-04-25T10:06:21.400Z,24.61
2019-04-25T10:08:48.208Z,23.61
2019-04-25T10:11:15.221Z,26.34
2019-04-25T10:13:47.146Z,26.39
2019-04-25T10:16:13.929Z,25.59
2019-04-25T10:18:41.359Z,29.35
2019-04-25T10:21:10.600Z,25.79
2019-04-25T10:23:38.261Z,27.01
2019-04-25T10:26:06.839Z,25.15
2019-04-25T10:28:33.865Z,23.74
2019-04-25T10:31:00.743Z,23.52
2019-04-25T10:33:27.555Z,24.95
2019-04-25T10:36:00.589Z,24.65
2019-04-25T10:38:25.433Z,23.85
2019-04-25T10:40:53.584Z,23.21
2019-04-25T10:43:21.728Z,22.30
2019-04-25T10:45:49.330Z,25.16
2019-04-25T10:48:16.138Z,26.03
2019-04-25T10:50:45.173Z,25.74
2019-04-25T10:53:11.634Z,25.01
2019-04-25T10:55:57.944Z,25.59
2019-04-25T10:58:24.755Z,25.30
2019-04-25T11:00:52.936Z,24.08
2019-04-25T11:03:33.909Z,25.83
2019-04-25T11:06:00.812Z,25.26
2019-04-25T11:08:27.646Z,24.21
2019-04-25T11:10:55.845Z,25.05
2019-04-25T11:13:22.639Z,25.33
2019-04-25T11:15:49.838Z,24.91
2019-04-25T11:18:17.077Z,24.87
2019-04-25T11:20:44.681Z,24.41
2019-04-25T11:23:11.569Z,23.58
2019-04-25T11:25:38.467Z,25.45
2019-04-25T11:28:07.971Z,24.42
2019-04-25T11:30:37.906Z,25.11
2019-04-25T11:33:05.131Z,25.78
2019-04-25T11:35:31.992Z,23.47
2019-04-25T11:38:03.415Z,20.72
2019-04-25T11:40:56.001Z,20.31
2019-04-25T11:43:22.922Z,22.10
2019-04-25T11:45:49.727Z,20.61
2019-04-25T11:48:16.658Z,18.06
2019-04-25T11:50:48.163Z,18.31
2019-04-25T11:53:12.290Z,18.28
2019-04-25T11:55:39.081Z,18.37
2019-04-25T11:58:05.790Z,20.65
2019-04-25T12:00:33.867Z,19.48
2019-04-25T12:03:00.777Z,18.78
2019-04-25T12:05:27.956Z,18.31
2019-04-25T12:07:54.767Z,18.88
2019-04-25T12:10:24.233Z,19.87
2019-04-25T12:12:51.192Z,22.54
2019-04-25T12:15:21.886Z,22.79
2019-04-25T12:17:49.492Z,22.75
2019-04-25T12:20:16.376Z,23.66
2019-04-25T12:22:44.514Z,22.98
2019-04-25T12:25:13.426Z,20.97
2019-04-25T12:27:40.974Z,19.91
2019-04-25T12:30:08.088Z,19.64
2019-04-25T12:32:35.256Z,17.96
2019-04-25T12:35:04.090Z,16.66
2019-04-25T12:37:31.024Z,17.56
2019-04-25T12:39:57.825Z,15.70
2019-04-25T12:42:24.501Z,15.00
2019-04-25T12:45:06.851Z,15.15
2019-04-25T12:47:35.208Z,15.25
2019-04-25T12:50:02.126Z,15.49
2019-04-25T12:52:28.921Z,14.36
2019-04-25T12:54:58.070Z,15.32
2019-04-25T12:57:25.079Z,14.82
2019-04-25T12:59:51.784Z,16.87
2019-04-25T13:02:18.468Z,18.86
2019-04-25T13:04:45.283Z,20.27
2019-04-25T13:07:13.322Z,20.41
2019-04-25T13:09:40.688Z,20.38
2019-04-25T13:12:08.458Z,21.08
2019-04-25T13:14:35.407Z,20.86
2019-04-25T13:17:03.808Z,20.63
2019-04-25T13:19:30.801Z,18.77
2019-04-25T13:21:57.963Z,18.37
2019-04-25T13:24:24.920Z,19.32
2019-04-25T13:27:10.000Z,20.35
2019-04-25T13:29:57.424Z,20.58
2019-04-25T13:32:56.519Z,20.86
2019-04-25T13:35:28.004Z,20.36
2019-04-25T13:37:54.739Z,19.12
2019-04-25T13:40:21.677Z,19.53
2019-04-25T13:42:48.554Z,19.74
2019-04-25T13:45:15.376Z,19.99
2019-04-25T13:47:42.182Z,19.82
2019-04-25T13:50:09.072Z,19.60
2019-04-25T13:52:37.119Z,18.55
2019-04-25T13:55:05.223Z,19.82
2019-04-25T13:57:32.397Z,17.68
2019-04-25T13:59:59.249Z,17.31
2019-04-25T14:02:26.768Z,15.73
2019-04-25T14:04:53.793Z,16.02
2019-04-25T14:07:20.679Z,15.69
2019-04-25T14:09:48.694Z,16.11
2019-04-25T14:12:16.125Z,17.30
2019-04-25T14:14:44.114Z,18.14
2019-04-25T14:17:33.882Z,18.58
2019-04-25T14:20:25.232Z,19.18
2019-04-25T14:22:53.671Z,19.10
2019-04-25T14:25:21.141Z,17.61
2019-04-25T14:27:47.825Z,18.25
2019-04-25T14:30:16.578Z,21.87
2019-04-25T14:33:04.685Z,22.51
2019-04-25T14:35:31.728Z,21.53
2019-04-25T14:37:58.437Z,19.96
2019-04-25T14:40:26.885Z,18.33
2019-04-25T14:42:53.749Z,20.63
2019-04-25T14:45:21.590Z,22.60
2019-04-25T14:47:49.234Z,24.37
2019-04-25T14:50:16.249Z,25.70
2019-04-25T14:52:43.044Z,25.00
2019-04-25T14:55:29.601Z,24.65
2019-04-25T14:58:01.235Z,24.77
2019-04-25T15:00:35.986Z,24.47
2019-04-25T15:03:03.482Z,25.42
2019-04-25T15:05:30.992Z,24.45
2019-04-25T15:07:57.866Z,23.96
2019-04-25T15:10:24.684Z,25.65
2019-04-25T15:12:51.471Z,25.01
2019-04-25T15:15:18.311Z,24.13
2019-04-25T15:17:46.757Z,25.07
2019-04-25T15:20:13.798Z,24.11
2019-04-25T15:22:40.621Z,23.87
2019-04-25T15:25:07.445Z,24.07
2019-04-25T15:27:34.170Z,22.10
2019-04-25T15:30:01.389Z,22.36
2019-04-25T15:32:32.558Z,22.33
2019-04-25T15:34:59.383Z,24.23
2019-04-25T15:37:54.909Z,23.80
2019-04-25T15:40:29.922Z,22.80
2019-04-25T15:43:13.057Z,22.85
2019-04-25T15:45:45.232Z,23.55
2019-04-25T15:48:12.214Z,25.14
2019-04-25T15:50:39.099Z,26.02
2019-04-25T15:53:05.918Z,25.97
2019-04-25T15:55:32.822Z,26.09
2019-04-25T15:57:59.665Z,26.32
2019-04-25T16:00:33.285Z,26.93
2019-04-25T16:03:00.052Z,26.58
2019-04-25T16:05:27.669Z,26.70
2019-04-25T16:07:54.439Z,25.81
2019-04-25T16:10:21.260Z,25.74
2019-04-25T16:12:47.969Z,25.33
2019-04-25T16:15:14.647Z,24.29
2019-04-25T16:17:41.461Z,25.01
2019-04-25T16:20:08.397Z,25.49
2019-04-25T16:22:35.062Z,26.69
2019-04-25T16:25:01.897Z,27.19
2019-04-25T16:27:28.984Z,27.09
2019-04-25T16:29:55.887Z,27.45
2019-04-25T16:32:23.795Z,27.73
2019-04-25T16:34:50.590Z,28.38
2019-04-25T16:37:17.328Z,27.91
2019-04-25T16:39:44.221Z,29.88
2019-04-25T16:42:11.041Z,28.19
2019-04-25T16:44:37.822Z,29.16
2019-04-25T16:47:04.631Z,29.42
2019-04-25T16:49:32.504Z,28.69
2019-04-25T16:51:59.416Z,29.20
2019-04-25T16:54:26.301Z,28.72
2019-04-25T16:56:52.992Z,28.04
2019-04-25T17:01:45.046Z,29.22
2019-04-25T17:06:39.838Z,29.50
2019-04-25T17:09:06.637Z,28.39
2019-04-25T17:11:33.891Z,29.77
2019-04-25T17:14:26.243Z,29.49
2019-04-25T17:17:06.353Z,30.31
2019-04-25T17:19:47.425Z,29.66
2019-04-25T17:22:14.220Z,30.29
2019-04-25T17:24:41.262Z,32.19
2019-04-25T17:27:09.917Z,32.63
2019-04-25T17:29:36.512Z,33.32
2019-04-25T17:32:14.880Z,32.55
2019-04-25T17:35:03.959Z,33.06
2019-04-25T17:37:36.271Z,32.86
2019-04-25T17:40:10.546Z,32.98
2019-04-25T17:42:37.441Z,34.10
2019-04-25T17:45:06.940Z,33.93
2019-04-25T17:47:34.575Z,34.87
2019-04-25T17:50:01.309Z,34.89
2019-04-25T17:52:28.117Z,36.24
2019-04-25T17:54:54.795Z,36.73
2019-04-25T17:57:21.504Z,36.62
2019-04-25T17:59:48.444Z,37.75
2019-04-25T18:02:15.215Z,39.03
2019-04-25T18:04:42.508Z,39.59
2019-04-25T18:07:09.577Z,38.53
2019-04-25T18:09:36.827Z,38.96
2019-04-25T18:12:03.654Z,37.54
2019-04-25T18:14:30.449Z,35.97
2019-04-25T18:16:57.128Z,36.59
2019-04-25T18:19:31.839Z,34.91
2019-04-25T18:22:04.577Z,36.18
2019-04-25T18:24:57.749Z,36.21
2019-04-25T18:27:30.267Z,35.27
2019-04-25T18:29:56.958Z,35.18
2019-04-25T18:32:25.576Z,34.55
2019-04-25T18:35:14.832Z,35.38
2019-04-25T18:37:52.631Z,34.59
2019-04-25T18:40:28.805Z,34.56
2019-04-25T18:43:11.333Z,35.06
2019-04-25T18:45:40.271Z,35.65
2019-04-25T18:48:07.180Z,36.74
2019-04-25T18:50:34.078Z,37.62
2019-04-25T18:53:35.565Z,37.47
2019-04-25T18:56:28.651Z,37.86
2019-04-25T18:59:13.518Z,39.11
2019-04-25T19:02:04.952Z,40.37
2019-04-25T19:05:00.242Z,41.42
2019-04-25T19:07:27.123Z,41.35
2019-04-25T19:09:53.943Z,42.14
2019-04-25T19:12:20.828Z,42.94
2019-04-25T19:14:47.632Z,43.33
2019-04-25T19:17:14.603Z,43.80
2019-04-25T19:19:41.588Z,45.26
2019-04-25T19:22:08.279Z,44.05
2019-04-25T19:24:35.074Z,44.45
2019-04-25T19:27:01.855Z,45.20
2019-04-25T19:29:28.672Z,45.67
2019-04-25T19:31:55.452Z,46.37
2019-04-25T19:34:22.021Z,45.54
2019-04-25T19:36:49.107Z,44.71
2019-04-25T19:39:17.567Z,45.58
2019-04-25T19:41:49.686Z,46.27
2019-04-25T19:44:22.449Z,46.08
2019-04-25T19:46:51.263Z,44.80
2019-04-25T19:49:18.116Z,45.77
2019-04-25T19:51:45.152Z,45.12
2019-04-25T19:54:12.071Z,46.32
2019-04-25T19:56:38.968Z,47.00
2019-04-25T19:59:05.761Z,46.98
2019-04-25T20:01:32.530Z,46.18
2019-04-25T20:04:11.999Z,47.38
2019-04-25T20:06:57.044Z,46.89
2019-04-25T20:10:01.551Z,48.48
2019-04-25T20:12:31.793Z,48.54
2019-04-25T20:14:58.389Z,47.63
2019-04-25T20:17:25.065Z,46.60
2019-04-25T20:19:51.890Z,45.60
2019-04-25T20:22:18.717Z,45.92
2019-04-25T20:24:46.314Z,45.74
2019-04-25T20:27:12.995Z,45.70
2019-04-25T20:29:39.976Z,44.04
2019-04-25T20:32:07.226Z,41.38
2019-04-25T20:34:34.046Z,40.66
2019-04-25T20:37:00.841Z,41.21
2019-04-25T20:39:27.921Z,41.31
2019-04-25T20:41:54.646Z,41.09
2019-04-25T20:44:21.457Z,40.66
2019-04-25T20:46:48.515Z,40.77
2019-04-25T20:49:15.545Z,41.52
2019-04-25T20:51:42.248Z,41.25
2019-04-25T20:54:08.967Z,40.70
2019-04-25T20:56:35.730Z,41.40
2019-04-25T20:59:02.649Z,40.74
2019-04-25T21:01:29.316Z,40.14
2019-04-25T21:03:56.222Z,39.86
2019-04-25T21:06:28.058Z,39.46
2019-04-25T21:08:55.473Z,41.54
2019-04-25T21:11:22.209Z,42.53
2019-04-25T21:14:07.013Z,46.79
2019-04-25T21:16:53.867Z,47.92
2019-04-25T21:19:26.738Z,48.31
2019-04-25T21:21:54.226Z,45.45
2019-04-25T21:24:21.133Z,45.23
2019-04-25T21:26:47.715Z,42.31
2019-04-25T21:29:14.623Z,42.72
2019-04-25T21:31:41.207Z,43.08
2019-04-25T21:34:08.058Z,43.59
2019-04-25T21:36:35.103Z,45.55
2019-04-25T21:39:02.112Z,47.00
2019-04-25T21:41:41.294Z,48.30
2019-04-25T21:44:08.366Z,49.06
2019-04-25T21:46:35.152Z,49.86
2019-04-25T21:49:03.079Z,50.11
2019-04-25T21:51:32.964Z,50.73
2019-04-25T21:54:01.348Z,50.95
2019-04-25T21:56:28.379Z,51.47
2019-04-25T21:58:55.625Z,51.75
2019-04-25T22:01:26.806Z,51.85
2019-04-25T22:03:54.328Z,52.27
2019-04-25T22:06:22.169Z,52.73
2019-04-25T22:08:49.198Z,52.82
2019-04-25T22:11:15.988Z,52.86
2019-04-25T22:13:43.188Z,53.17
2019-04-25T22:16:10.369Z,53.39
2019-04-25T22:18:37.532Z,53.49
2019-04-25T22:21:04.630Z,53.82
2019-04-25T22:23:31.718Z,54.10
2019-04-25T22:25:59.087Z,54.55
2019-04-25T22:28:26.274Z,54.64
2019-04-25T22:30:57.697Z,54.67
2019-04-25T22:33:46.902Z,54.56
2019-04-25T22:36:17.686Z,54.81
2019-04-25T22:39:11.090Z,54.84
2019-04-25T22:41:40.441Z,54.86
2019-04-25T22:44:09.293Z,55.36
2019-04-25T22:46:36.375Z,55.32
2019-04-25T22:49:03.889Z,55.27
2019-04-25T22:51:38.313Z,55.61
2019-04-25T22:54:05.587Z,55.08
2019-04-25T22:56:34.502Z,55.16
2019-04-25T22:59:02.866Z,55.55
2019-04-25T23:01:49.814Z,55.46
2019-04-25T23:04:24.481Z,55.63
2019-04-25T23:06:51.343Z,55.36
2019-04-25T23:09:18.113Z,55.63
2019-04-25T23:11:45.016Z,55.92
2019-04-25T23:14:12.881Z,56.01
2019-04-25T23:16:40.967Z,55.50
2019-04-25T23:19:07.641Z,55.63
2019-04-25T23:21:34.637Z,55.50
2019-04-25T23:24:01.783Z,55.88
2019-04-25T23:26:48.115Z,55.80
2019-04-25T23:29:15.791Z,56.12
2019-04-25T23:31:42.583Z,56.30
2019-04-25T23:34:10.801Z,56.42
2019-04-25T23:36:37.649Z,56.54
2019-04-25T23:39:07.276Z,56.60
2019-04-25T23:41:34.308Z,56.65
2019-04-25T23:44:01.076Z,57.08
2019-04-25T23:46:30.740Z,57.19
2019-04-25T23:48:57.491Z,57.04
2019-04-25T23:51:24.175Z,57.35
2019-04-25T23:53:51.264Z,57.33
2019-04-25T23:56:18.038Z,57.63
2019-04-25T23:58:44.939Z,57.78
